Ritchie, Illinois
Current Conditions -  °F | °C
As of 12:15 PM on Saturday 25 Oct 2014 (Local Time) from KJOT Reporting Station
Clear Clear  
Wind Chill: 68°   Ceiling: Unl
Heat Index: 68°   Visibility: 10mi
Dew Point: 47°   Wind: 7mph
Humidity: 46%   Direction: 310°NW
Pressure: 29.97"   Gusts: NA
Location:  41.3199°N, 88.0518°W
Report Text: KJOT 251715Z AUTO 31006KT 10SM CLR 20/08 A2997 RMK AO2 T02020083
Loading
Personal Weather Stations






























Interactive Weather Map
Tropical Storm Tracking
New forecast layout! Learn more

10-Day Weather Forecast

Advertisements
Track Severe Weather on mobile